createdAt,value
2023-04-27T00:00:10.927Z,4.20
2023-04-27T00:02:57.552Z,3.27
2023-04-27T00:05:44.346Z,3.47
2023-04-27T00:08:30.660Z,3.50
2023-04-27T00:11:17.025Z,3.80
2023-04-27T00:14:03.559Z,3.67
2023-04-27T00:16:50.372Z,3.60
2023-04-27T00:19:36.941Z,3.87
2023-04-27T00:22:23.216Z,3.60
2023-04-27T00:25:09.611Z,3.80
2023-04-27T00:27:56.075Z,3.27
2023-04-27T00:30:42.383Z,5.17
2023-04-27T00:33:28.554Z,4.13
2023-04-27T00:36:15.078Z,4.03
2023-04-27T00:39:01.173Z,4.33
2023-04-27T00:41:48.029Z,3.50
2023-04-27T00:44:34.643Z,4.87
2023-04-27T00:47:21.772Z,3.80
2023-04-27T00:50:10.460Z,3.87
2023-04-27T00:52:57.359Z,3.60
2023-04-27T00:55:43.569Z,4.07
2023-04-27T00:58:30.239Z,3.87
2023-04-27T01:01:20.613Z,3.97
2023-04-27T01:04:07.766Z,3.57
2023-04-27T01:06:55.841Z,3.63
2023-04-27T01:09:44.337Z,3.43
2023-04-27T01:12:32.258Z,3.97
2023-04-27T01:15:18.800Z,4.10
2023-04-27T01:18:05.242Z,4.13
2023-04-27T01:20:51.389Z,5.10
2023-04-27T01:23:38.990Z,4.37
2023-04-27T01:26:25.257Z,4.47
2023-04-27T01:29:12.047Z,4.63
2023-04-27T01:31:59.300Z,4.47
2023-04-27T01:34:45.778Z,4.40
2023-04-27T01:37:32.241Z,4.60
2023-04-27T01:40:18.823Z,4.03
2023-04-27T01:43:05.033Z,4.40
2023-04-27T01:45:52.121Z,3.90
2023-04-27T01:48:39.719Z,3.60
2023-04-27T01:51:26.205Z,4.40
2023-04-27T01:54:12.642Z,4.00
2023-04-27T01:56:58.913Z,4.27
2023-04-27T01:59:45.448Z,3.80
2023-04-27T02:02:31.764Z,3.30
2023-04-27T02:05:18.387Z,4.00
2023-04-27T02:08:06.301Z,3.87
2023-04-27T02:10:52.976Z,4.43
2023-04-27T02:13:39.327Z,3.70
2023-04-27T02:16:26.069Z,3.57
2023-04-27T02:19:12.651Z,4.20
2023-04-27T02:21:59.474Z,3.73
2023-04-27T02:24:46.765Z,4.10
2023-04-27T02:27:34.258Z,4.00
2023-04-27T02:30:21.480Z,4.33
2023-04-27T02:33:08.500Z,4.53
2023-04-27T02:35:55.698Z,3.87
2023-04-27T02:38:42.577Z,4.40
2023-04-27T02:41:33.106Z,4.30
2023-04-27T02:44:19.203Z,4.90
2023-04-27T02:47:06.034Z,3.50
2023-04-27T02:49:53.044Z,4.37
2023-04-27T02:52:39.520Z,3.90
2023-04-27T02:55:27.670Z,3.67
2023-04-27T02:58:15.166Z,3.87
2023-04-27T03:01:02.855Z,4.10
2023-04-27T03:03:49.501Z,3.90
2023-04-27T03:06:36.232Z,4.13
2023-04-27T03:09:22.751Z,4.90
2023-04-27T03:12:09.832Z,3.93
2023-04-27T03:14:56.599Z,4.40
2023-04-27T03:17:44.107Z,3.40
2023-04-27T03:20:30.564Z,3.97
2023-04-27T03:23:17.069Z,4.23
2023-04-27T03:26:11.533Z,4.30
2023-04-27T03:28:57.890Z,3.50
2023-04-27T03:31:48.061Z,4.07
2023-04-27T03:34:35.265Z,3.20
2023-04-27T03:37:21.888Z,4.10
2023-04-27T03:40:08.950Z,4.63
2023-04-27T03:42:54.996Z,5.13
2023-04-27T03:45:41.795Z,5.03
2023-04-27T03:48:28.362Z,4.73
2023-04-27T03:51:15.820Z,5.57
2023-04-27T03:54:04.614Z,5.77
2023-04-27T03:56:51.333Z,5.57
2023-04-27T03:59:38.787Z,6.17
2023-04-27T04:02:25.271Z,5.30
2023-04-27T04:05:14.496Z,6.20
2023-04-27T04:08:01.454Z,5.47
2023-04-27T04:10:48.078Z,5.40
2023-04-27T04:13:36.035Z,5.77
2023-04-27T04:16:22.581Z,5.10
2023-04-27T04:19:09.444Z,4.43
2023-04-27T04:21:57.767Z,4.80
2023-04-27T04:24:43.997Z,5.00
2023-04-27T04:27:31.551Z,4.70
2023-04-27T04:30:17.889Z,4.57
2023-04-27T04:33:04.434Z,5.10
2023-04-27T04:35:51.737Z,4.03
2023-04-27T04:38:38.884Z,4.60
2023-04-27T04:41:25.580Z,4.67
2023-04-27T04:44:12.246Z,4.93
2023-04-27T04:46:59.320Z,4.50
2023-04-27T04:49:46.337Z,4.80
2023-04-27T04:52:32.834Z,4.87
2023-04-27T04:55:19.887Z,4.57
2023-04-27T04:58:06.644Z,6.13
2023-04-27T05:00:53.032Z,4.90
2023-04-27T05:03:39.886Z,5.50
2023-04-27T05:06:26.502Z,5.03
2023-04-27T05:09:13.041Z,4.90
2023-04-27T05:12:01.842Z,4.37
2023-04-27T05:14:48.576Z,4.87
2023-04-27T05:17:35.616Z,4.63
2023-04-27T05:20:22.285Z,4.53
2023-04-27T05:23:08.422Z,4.90
2023-04-27T05:25:54.755Z,5.30
2023-04-27T05:28:41.638Z,4.30
2023-04-27T05:31:28.023Z,4.73
2023-04-27T05:34:14.742Z,4.73
2023-04-27T05:37:01.427Z,5.30
2023-04-27T05:39:47.862Z,4.57
2023-04-27T05:42:34.191Z,4.63
2023-04-27T05:45:21.636Z,4.27
2023-04-27T05:48:08.140Z,4.37
2023-04-27T05:51:02.849Z,4.63
2023-04-27T05:53:49.497Z,4.73
2023-04-27T05:56:35.960Z,4.30
2023-04-27T05:59:22.398Z,4.30
2023-04-27T06:02:09.486Z,5.60
2023-04-27T06:04:56.013Z,5.07
2023-04-27T06:07:43.960Z,4.53
2023-04-27T06:10:30.449Z,4.47
2023-04-27T06:13:17.655Z,4.70
2023-04-27T06:16:04.912Z,4.77
2023-04-27T06:18:51.760Z,4.40
2023-04-27T06:21:38.327Z,4.30
2023-04-27T06:24:24.861Z,4.40
2023-04-27T06:27:12.310Z,4.30
2023-04-27T06:29:59.190Z,4.87
2023-04-27T06:32:46.040Z,4.40
2023-04-27T06:35:32.526Z,4.67
2023-04-27T06:45:43.885Z,4.80
2023-04-27T06:48:30.161Z,4.90
2023-04-27T06:51:18.065Z,4.60
2023-04-27T06:54:04.571Z,4.13
2023-04-27T06:56:51.058Z,4.97
2023-04-27T06:59:37.651Z,4.83
2023-04-27T07:02:25.601Z,5.10
2023-04-27T07:05:12.150Z,4.57
2023-04-27T07:08:00.928Z,4.83
2023-04-27T07:10:50.068Z,5.30
2023-04-27T07:13:36.355Z,4.80
2023-04-27T07:16:22.704Z,4.53
2023-04-27T07:19:09.316Z,4.67
2023-04-27T07:21:56.016Z,4.47
2023-04-27T07:24:42.221Z,4.70
2023-04-27T07:27:28.950Z,4.93
2023-04-27T07:30:17.356Z,4.70
2023-04-27T07:33:03.815Z,5.07
2023-04-27T07:35:51.120Z,4.37
2023-04-27T07:38:38.397Z,4.80
2023-04-27T07:41:24.939Z,6.40
2023-04-27T07:44:12.268Z,5.53
2023-04-27T07:46:58.493Z,5.20
2023-04-27T07:49:46.465Z,6.03
2023-04-27T07:52:33.229Z,5.13
2023-04-27T07:55:21.512Z,5.20
2023-04-27T07:58:08.123Z,5.77
2023-04-27T08:00:54.421Z,4.80
2023-04-27T08:03:41.434Z,5.77
2023-04-27T08:06:29.120Z,4.70
2023-04-27T08:09:16.257Z,4.87
2023-04-27T08:12:02.936Z,5.07
2023-04-27T08:14:49.698Z,5.23
2023-04-27T08:17:37.153Z,4.30
2023-04-27T08:20:23.537Z,3.93
2023-04-27T08:23:09.987Z,4.43
2023-04-27T08:25:56.565Z,4.30
2023-04-27T08:28:42.759Z,5.20
2023-04-27T08:31:29.351Z,3.90
2023-04-27T08:34:15.818Z,4.53
2023-04-27T08:37:04.395Z,4.40
2023-04-27T08:39:51.135Z,4.93
2023-04-27T08:42:37.788Z,4.37
2023-04-27T08:45:25.523Z,4.23
2023-04-27T08:48:11.754Z,4.33
2023-04-27T08:51:00.788Z,4.27
2023-04-27T08:53:55.958Z,3.40
2023-04-27T08:56:42.455Z,4.97
2023-04-27T08:59:28.715Z,3.57
2023-04-27T09:02:21.823Z,3.07
2023-04-27T09:05:18.740Z,3.17
2023-04-27T09:08:08.167Z,2.93
2023-04-27T09:10:57.563Z,2.70
2023-04-27T09:13:45.382Z,3.00
2023-04-27T09:16:32.242Z,3.40
2023-04-27T09:19:24.433Z,2.30
2023-04-27T09:22:11.734Z,2.70
2023-04-27T09:24:57.976Z,2.80
2023-04-27T09:27:44.513Z,2.70
2023-04-27T09:30:30.887Z,3.13
2023-04-27T09:33:23.298Z,2.77
2023-04-27T09:36:10.248Z,2.70
2023-04-27T09:38:57.776Z,3.13
2023-04-27T09:41:45.040Z,2.67
2023-04-27T09:44:31.923Z,2.70
2023-04-27T09:47:18.598Z,3.07
2023-04-27T09:50:05.420Z,2.90
2023-04-27T09:52:51.714Z,3.47
2023-04-27T09:55:55.058Z,2.30
2023-04-27T09:59:12.653Z,2.87
2023-04-27T10:02:10.033Z,2.90
2023-04-27T10:05:26.748Z,2.80
2023-04-27T10:08:13.852Z,2.53
2023-04-27T10:11:00.014Z,2.50
2023-04-27T10:13:54.816Z,3.63
2023-04-27T10:16:57.173Z,2.80
2023-04-27T10:19:58.542Z,2.70
2023-04-27T10:22:46.632Z,2.60
2023-04-27T10:25:41.127Z,2.83
2023-04-27T10:28:37.891Z,3.17
2023-04-27T10:31:29.123Z,3.00
2023-04-27T10:34:19.730Z,3.00
2023-04-27T10:37:09.337Z,2.70
2023-04-27T10:40:08.344Z,3.00
2023-04-27T10:42:54.867Z,2.50
2023-04-27T10:45:43.007Z,2.80
2023-04-27T10:48:30.166Z,2.80
2023-04-27T10:51:17.903Z,2.50
2023-04-27T10:54:05.254Z,2.50
2023-04-27T10:56:51.982Z,2.50
2023-04-27T10:59:50.069Z,2.73
2023-04-27T11:02:36.256Z,2.80
2023-04-27T11:05:30.556Z,3.03
2023-04-27T11:08:19.085Z,2.37
2023-04-27T11:11:06.184Z,2.90
2023-04-27T11:13:53.361Z,2.50
2023-04-27T11:16:46.692Z,2.27
2023-04-27T11:19:33.633Z,2.47
2023-04-27T11:22:20.216Z,2.90
2023-04-27T11:25:06.914Z,2.70
2023-04-27T11:27:53.400Z,2.83
2023-04-27T11:30:39.847Z,2.10
2023-04-27T11:33:27.796Z,2.43
2023-04-27T11:36:19.369Z,2.87
2023-04-27T11:39:06.592Z,2.50
2023-04-27T11:41:52.846Z,2.80
2023-04-27T11:44:40.464Z,3.63
2023-04-27T11:47:31.533Z,2.70
2023-04-27T11:50:17.982Z,2.87
2023-04-27T11:53:04.191Z,3.13
2023-04-27T11:55:52.487Z,3.10
2023-04-27T11:58:39.735Z,2.80
2023-04-27T12:01:36.941Z,2.67
2023-04-27T12:04:24.991Z,2.67
2023-04-27T12:07:12.247Z,3.03
2023-04-27T12:10:00.701Z,3.00
2023-04-27T12:12:47.808Z,4.03
2023-04-27T12:15:34.084Z,2.30
2023-04-27T12:18:20.694Z,2.53
2023-04-27T12:21:08.548Z,2.70
2023-04-27T12:23:54.873Z,2.50
2023-04-27T12:26:41.566Z,2.50
2023-04-27T12:38:14.846Z,2.50
2023-04-27T12:41:02.236Z,2.40
2023-04-27T12:43:49.014Z,2.10
2023-04-27T12:46:35.390Z,18.00
2023-04-27T12:49:22.106Z,3.33
2023-04-27T12:52:09.599Z,2.30
2023-04-27T12:54:59.159Z,2.60
2023-04-27T12:57:45.397Z,2.10
2023-04-27T13:00:32.158Z,2.30
2023-04-27T13:03:18.930Z,2.53
2023-04-27T13:06:05.699Z,2.60
2023-04-27T13:08:52.212Z,2.70
2023-04-27T13:11:38.415Z,3.00
2023-04-27T13:14:24.674Z,2.20
2023-04-27T13:17:11.200Z,2.30
2023-04-27T13:19:57.414Z,2.27
2023-04-27T13:22:43.694Z,2.10
2023-04-27T13:25:30.060Z,2.10
2023-04-27T13:28:16.657Z,2.30
2023-04-27T13:31:04.107Z,2.93
2023-04-27T13:33:50.616Z,2.20
2023-04-27T13:36:36.859Z,2.53
2023-04-27T13:39:24.870Z,2.87
2023-04-27T13:42:12.551Z,2.53
2023-04-27T13:44:59.278Z,2.87
2023-04-27T13:47:45.555Z,2.30
2023-04-27T13:50:33.032Z,2.10
2023-04-27T13:53:19.842Z,2.50
2023-04-27T13:56:06.473Z,2.40
2023-04-27T13:58:52.727Z,3.13
2023-04-27T14:01:40.087Z,2.60
2023-04-27T14:04:26.789Z,2.03
2023-04-27T14:07:13.437Z,2.20
2023-04-27T14:10:01.138Z,2.63
2023-04-27T14:12:48.615Z,2.37
2023-04-27T14:15:37.277Z,2.27
2023-04-27T14:18:31.774Z,3.47
2023-04-27T14:21:19.166Z,2.17
2023-04-27T14:24:05.778Z,2.13
2023-04-27T14:26:52.108Z,2.20
2023-04-27T14:29:38.255Z,2.13
2023-04-27T14:32:24.734Z,2.43
2023-04-27T14:35:11.170Z,2.03
2023-04-27T14:38:02.064Z,2.30
2023-04-27T14:40:49.020Z,2.30
2023-04-27T14:43:35.406Z,2.47
2023-04-27T14:46:21.966Z,2.30
2023-04-27T14:49:08.859Z,2.23
2023-04-27T14:51:55.552Z,2.57
2023-04-27T14:54:41.985Z,2.63
2023-04-27T14:57:28.365Z,2.03
2023-04-27T15:00:15.570Z,2.53
2023-04-27T15:03:01.950Z,2.20
2023-04-27T15:05:48.416Z,2.00
2023-04-27T15:08:35.058Z,2.30
2023-04-27T15:11:22.045Z,2.33
2023-04-27T15:14:08.682Z,2.30
2023-04-27T15:16:55.005Z,2.27
2023-04-27T15:19:41.425Z,2.40
2023-04-27T15:22:28.492Z,2.40
2023-04-27T15:25:15.327Z,2.70
2023-04-27T15:28:03.203Z,2.47
2023-04-27T15:30:50.415Z,2.20
2023-04-27T15:33:36.681Z,2.00
2023-04-27T15:36:23.334Z,2.33
2023-04-27T15:39:10.218Z,2.00
2023-04-27T15:41:58.504Z,4.13
2023-04-27T15:44:44.721Z,2.40
2023-04-27T15:47:30.817Z,2.57
2023-04-27T15:50:18.078Z,2.07
2023-04-27T15:53:04.451Z,2.20
2023-04-27T15:55:51.039Z,2.33
2023-04-27T15:58:37.597Z,2.50
2023-04-27T16:01:23.694Z,2.77
2023-04-27T16:04:10.392Z,2.73
2023-04-27T16:06:57.515Z,2.30
2023-04-27T16:09:43.874Z,2.23
2023-04-27T16:12:30.373Z,2.90
2023-04-27T16:15:16.637Z,2.40
2023-04-27T16:18:02.866Z,2.53
2023-04-27T16:20:49.224Z,2.30
2023-04-27T16:23:36.003Z,2.20
2023-04-27T16:26:22.173Z,2.63
2023-04-27T16:29:08.604Z,2.30
2023-04-27T16:31:55.422Z,2.30
2023-04-27T16:34:41.838Z,2.27
2023-04-27T16:37:28.275Z,2.53
2023-04-27T16:40:14.952Z,2.17
2023-04-27T16:43:01.225Z,2.70
2023-04-27T16:45:47.454Z,6.60
2023-04-27T16:48:33.913Z,2.60
2023-04-27T16:51:20.420Z,2.10
2023-04-27T16:54:06.912Z,2.67
2023-04-27T16:56:55.087Z,2.50
2023-04-27T16:59:41.755Z,3.13
2023-04-27T17:02:28.523Z,2.27
2023-04-27T17:05:15.452Z,2.43
2023-04-27T17:08:04.255Z,2.97
2023-04-27T17:10:52.656Z,2.60
2023-04-27T17:13:39.140Z,2.50
2023-04-27T17:16:27.049Z,2.70
2023-04-27T17:19:13.572Z,2.63
2023-04-27T17:22:00.022Z,2.40
2023-04-27T17:24:46.361Z,2.60
2023-04-27T17:27:32.736Z,2.47
2023-04-27T17:30:19.074Z,2.27
2023-04-27T17:33:05.805Z,2.73
2023-04-27T17:35:52.275Z,2.27
2023-04-27T17:38:38.964Z,3.00
2023-04-27T17:41:25.500Z,2.30
2023-04-27T17:44:12.751Z,2.53
2023-04-27T17:46:59.361Z,2.50
2023-04-27T17:49:46.153Z,2.80
2023-04-27T17:52:32.420Z,2.70
2023-04-27T17:55:19.153Z,2.40
2023-04-27T17:58:06.355Z,2.53
2023-04-27T18:00:52.808Z,2.70
2023-04-27T18:03:39.374Z,2.80
2023-04-27T18:06:27.714Z,2.43
2023-04-27T18:09:14.447Z,2.63
2023-04-27T18:12:02.062Z,2.30
2023-04-27T18:14:50.722Z,2.60
2023-04-27T18:17:37.406Z,2.70
2023-04-27T18:20:23.654Z,3.00
2023-04-27T18:23:10.530Z,3.40
2023-04-27T18:26:00.160Z,4.23
2023-04-27T18:28:46.623Z,3.67
2023-04-27T18:31:33.248Z,3.63
2023-04-27T18:34:20.073Z,3.17
2023-04-27T18:37:06.445Z,2.50
2023-04-27T18:39:53.127Z,2.97
2023-04-27T18:42:40.050Z,3.03
2023-04-27T18:45:26.709Z,2.57
2023-04-27T18:48:13.032Z,2.80
2023-04-27T18:50:59.346Z,2.90
2023-04-27T18:53:45.823Z,3.70
2023-04-27T18:56:32.891Z,3.10
2023-04-27T18:59:20.210Z,3.83
2023-04-27T19:02:07.158Z,4.40
2023-04-27T19:05:10.409Z,4.13
2023-04-27T19:07:59.784Z,5.23
2023-04-27T19:10:46.469Z,3.60
2023-04-27T19:13:32.980Z,4.37
2023-04-27T19:16:19.475Z,3.20
2023-04-27T19:19:06.162Z,4.10
2023-04-27T19:21:52.837Z,4.50
2023-04-27T19:24:39.622Z,4.43
2023-04-27T19:27:26.288Z,3.30
2023-04-27T19:30:12.998Z,3.53
2023-04-27T19:32:59.336Z,3.90
2023-04-27T19:35:46.129Z,4.00
2023-04-27T19:38:32.228Z,4.47
2023-04-27T19:41:18.560Z,3.87
2023-04-27T19:44:05.485Z,4.10
2023-04-27T19:46:51.906Z,4.63
2023-04-27T19:49:38.972Z,5.33
2023-04-27T19:52:26.242Z,5.33
2023-04-27T19:55:12.575Z,4.43
2023-04-27T19:57:58.792Z,3.77
2023-04-27T20:00:45.209Z,4.10
2023-04-27T20:03:31.972Z,4.30
2023-04-27T20:06:20.064Z,4.07
2023-04-27T20:09:06.982Z,4.07
2023-04-27T20:11:54.934Z,4.30
2023-04-27T20:14:42.483Z,4.33
2023-04-27T20:17:29.012Z,4.57
2023-04-27T20:20:15.265Z,3.80
2023-04-27T20:23:01.667Z,4.63
2023-04-27T20:25:48.364Z,5.70
2023-04-27T20:28:34.530Z,5.80
2023-04-27T20:31:21.210Z,6.10
2023-04-27T20:34:08.003Z,5.77
2023-04-27T20:36:54.253Z,5.87
2023-04-27T20:39:41.434Z,6.10
2023-04-27T20:42:29.560Z,5.43
2023-04-27T20:45:16.036Z,5.33
2023-04-27T20:48:03.206Z,4.87
2023-04-27T20:50:50.257Z,5.87
2023-04-27T21:02:40.966Z,5.00
2023-04-27T21:05:28.035Z,5.63
2023-04-27T21:08:16.851Z,5.20
2023-04-27T21:11:03.383Z,4.83
2023-04-27T21:13:49.724Z,7.20
2023-04-27T21:16:36.205Z,5.07
2023-04-27T21:19:23.486Z,4.70
2023-04-27T21:22:10.028Z,3.87
2023-04-27T21:24:56.301Z,4.70
2023-04-27T21:27:42.808Z,4.93
2023-04-27T21:30:31.178Z,5.00
2023-04-27T21:33:18.095Z,4.60
2023-04-27T21:36:05.482Z,4.80
2023-04-27T21:38:51.826Z,4.43
2023-04-27T21:41:39.235Z,4.77
2023-04-27T21:44:25.661Z,5.03
2023-04-27T21:47:12.226Z,5.13
2023-04-27T21:49:58.631Z,4.33
2023-04-27T21:52:45.018Z,5.57
2023-04-27T21:55:31.420Z,5.93
2023-04-27T21:58:18.042Z,6.77
2023-04-27T22:01:04.554Z,5.97
2023-04-27T22:03:51.477Z,4.90
2023-04-27T22:06:38.027Z,4.60
2023-04-27T22:09:24.528Z,4.60
2023-04-27T22:12:10.943Z,5.17
2023-04-27T22:14:57.586Z,4.57
2023-04-27T22:17:44.073Z,5.53
2023-04-27T22:20:30.532Z,4.93
2023-04-27T22:23:16.876Z,5.67
2023-04-27T22:26:03.247Z,4.90
2023-04-27T22:28:49.498Z,5.57
2023-04-27T22:31:36.278Z,5.13
2023-04-27T22:34:22.868Z,5.17
2023-04-27T22:37:09.529Z,4.80
2023-04-27T22:39:56.170Z,5.47
2023-04-27T22:42:42.718Z,4.50
2023-04-27T22:45:29.005Z,5.60
2023-04-27T22:48:16.349Z,4.33
2023-04-27T22:51:08.136Z,5.00
2023-04-27T22:53:54.565Z,5.47
2023-04-27T22:56:41.279Z,4.57
2023-04-27T22:59:27.939Z,5.37
2023-04-27T23:02:14.140Z,4.77
2023-04-27T23:05:00.932Z,4.97
2023-04-27T23:07:47.639Z,5.27
2023-04-27T23:10:34.741Z,4.50
2023-04-27T23:13:27.609Z,5.23
2023-04-27T23:20:46.062Z,4.53
2023-04-27T23:23:32.280Z,4.40
2023-04-27T23:26:18.833Z,4.93
2023-04-27T23:29:05.050Z,5.20
2023-04-27T23:31:51.312Z,4.37
2023-04-27T23:34:37.532Z,4.77
2023-04-27T23:37:24.919Z,4.50
2023-04-27T23:40:11.504Z,5.33
2023-04-27T23:42:58.259Z,5.03
2023-04-27T23:45:52.614Z,5.83
2023-04-27T23:48:39.275Z,4.77
2023-04-27T23:51:25.571Z,5.60
2023-04-27T23:54:11.833Z,4.17
2023-04-27T23:56:58.588Z,4.90
2023-04-27T23:59:44.821Z,4.43
